Time;durP1;ratioP1;P1;durP2;ratioP2;P2;SDS_P1;SDS_P2;PMS_P1;PMS_P2;Temp;Humidity;BMP_temperature;BMP_pressure;BME280_temperature;BME280_humidity;BME280_pressure;Samples;Min_cycle;Max_cycle;Signal;HPM_P1;HPM_P2
2021/03/08 00:01:25;;;;;;;4.08;2.20;;;;;;;1.07;64.15;100041.41;147116;1147;104548;-70
2021/03/08 00:04:28;;;;;;;7.03;3.10;;;;;;;1.09;63.73;100047.41;147516;1147;104609;-70
2021/03/08 00:07:32;;;;;;;6.95;2.40;;;;;;;1.10;64.05;100041.23;147443;1147;104550;-71
2021/03/08 00:10:35;;;;;;;6.28;2.85;;;;;;;1.08;63.76;100050.13;147232;1147;104457;-73
2021/03/08 00:13:39;;;;;;;6.67;3.00;;;;;;;1.10;64.14;100045.65;147708;1147;104469;-72
2021/03/08 00:16:42;;;;;;;5.40;2.92;;;;;;;1.11;63.98;100042.06;147707;1147;104921;-71
2021/03/08 00:19:46;;;;;;;5.70;3.00;;;;;;;1.12;64.00;100047.23;147395;1148;104572;-70
2021/03/08 00:22:49;;;;;;;6.65;3.33;;;;;;;1.13;63.95;100042.80;147475;1146;104565;-72
2021/03/08 00:25:52;;;;;;;29.15;10.23;;;;;;;1.10;64.35;100032.51;147696;1147;104447;-70
2021/03/08 00:28:56;;;;;;;11.40;4.05;;;;;;;1.00;64.73;100037.48;147522;1147;104455;-72
2021/03/08 00:31:59;;;;;;;6.85;3.10;;;;;;;0.95;64.19;100043.03;147705;1147;105007;-73
2021/03/08 00:35:04;;;;;;;9.28;4.03;;;;;;;0.96;64.92;100046.50;147706;1147;104525;-72
2021/03/08 00:38:07;;;;;;;6.03;2.87;;;;;;;0.96;64.09;100030.73;147396;1147;104470;-72
2021/03/08 00:41:11;;;;;;;6.77;2.87;;;;;;;0.95;64.11;100029.90;147547;1147;104476;-74
2021/03/08 00:44:14;;;;;;;7.20;2.75;;;;;;;1.01;64.20;100033.09;147259;1146;104513;-71
2021/03/08 00:47:17;;;;;;;7.35;3.12;;;;;;;1.08;64.39;100040.48;147265;1148;104618;-72
2021/03/08 00:50:25;;;;;;;5.50;3.25;;;;;;;1.05;63.74;100039.83;147199;1145;104561;-72
2021/03/08 00:53:28;;;;;;;12.13;5.15;;;;;;;1.01;63.77;100038.34;147279;1147;104473;-71
2021/03/08 00:56:32;;;;;;;5.75;3.17;;;;;;;1.04;64.66;100044.25;147430;1148;104465;-72
2021/03/08 00:59:35;;;;;;;7.53;3.10;;;;;;;0.99;64.28;100041.06;147517;1147;104546;-72
2021/03/08 01:02:40;;;;;;;6.40;3.25;;;;;;;1.03;64.62;100039.92;147261;1147;104624;-74
2021/03/08 01:05:46;;;;;;;6.50;3.62;;;;;;;1.06;64.08;100039.73;147158;1147;104570;-70
2021/03/08 01:08:56;;;;;;;6.58;3.55;;;;;;;1.14;64.53;100032.20;147269;1147;104400;-72
2021/03/08 01:12:00;;;;;;;6.25;3.37;;;;;;;1.12;64.31;100030.63;147383;1146;104545;-71
2021/03/08 01:15:10;;;;;;;5.90;3.25;;;;;;;0.96;64.60;100046.50;147622;1147;104525;-71
2021/03/08 01:18:14;;;;;;;7.33;3.70;;;;;;;0.97;65.31;100045.57;147730;1148;104539;-71
2021/03/08 01:21:17;;;;;;;6.50;3.12;;;;;;;0.96;64.68;100038.61;147287;1146;104592;-71
2021/03/08 01:24:21;;;;;;;7.17;3.92;;;;;;;0.97;64.49;100027.18;147215;1147;104559;-73
2021/03/08 01:27:24;;;;;;;6.67;3.77;;;;;;;0.92;63.89;100030.08;147547;1148;104537;-71
2021/03/08 01:30:31;;;;;;;8.53;4.08;;;;;;;0.91;64.41;100030.20;147694;1147;104451;-71
2021/03/08 01:33:34;;;;;;;10.60;5.87;;;;;;;0.84;64.62;100039.40;147671;1146;104608;-71
2021/03/08 01:36:38;;;;;;;7.33;3.73;;;;;;;0.78;65.28;100043.25;147201;1147;105022;-76
2021/03/08 01:39:41;;;;;;;10.93;5.53;;;;;;;0.67;64.38;100030.78;147352;1146;104552;-72
2021/03/08 01:42:45;;;;;;;7.90;4.03;;;;;;;0.59;64.99;100038.30;147268;1147;104464;-71
2021/03/08 01:45:48;;;;;;;6.30;3.58;;;;;;;0.52;64.75;100040.47;147356;1148;104476;-71
2021/03/08 01:48:52;;;;;;;8.83;4.62;;;;;;;0.53;64.92;100033.43;147729;1146;104576;-71
2021/03/08 01:51:56;;;;;;;8.28;4.03;;;;;;;0.46;64.89;100038.20;147279;1147;104591;-74
2021/03/08 01:54:59;;;;;;;7.47;4.07;;;;;;;0.35;64.98;100036.24;147542;1147;104476;-72
2021/03/08 01:58:03;;;;;;;5.08;3.33;;;;;;;0.28;65.39;100042.80;147730;1147;104450;-72
2021/03/08 02:01:07;;;;;;;7.80;3.65;;;;;;;0.17;65.44;100038.21;147556;1146;104523;-71
2021/03/08 02:04:12;;;;;;;8.33;3.77;;;;;;;0.11;67.04;100042.97;147400;1147;104524;-72
2021/03/08 02:07:15;;;;;;;7.12;3.72;;;;;;;0.05;65.50;100036.30;147707;1147;104509;-74
2021/03/08 02:10:19;;;;;;;5.40;3.12;;;;;;;0.01;65.96;100037.42;147748;1146;104514;-71
2021/03/08 02:14:03;;;;;;;6.40;3.80;;;;;;;0.00;65.72;100035.75;147637;1147;104479;-73
2021/03/08 02:17:11;;;;;;;8.33;4.15;;;;;;;0.00;65.62;100041.00;147810;1147;104526;-71
2021/03/08 02:20:46;;;;;;;6.10;3.65;;;;;;;-0.07;66.18;100044.91;147557;1146;104546;-71
2021/03/08 02:24:18;;;;;;;7.53;4.33;;;;;;;-0.11;65.68;100044.24;147390;1146;104553;-72
2021/03/08 02:27:44;;;;;;;9.60;4.53;;;;;;;-0.11;66.03;100049.48;147346;1147;104472;-72
2021/03/08 02:30:50;;;;;;;9.40;5.00;;;;;;;-0.14;65.31;100049.66;147226;1147;104559;-72
2021/03/08 02:33:58;;;;;;;12.45;5.37;;;;;;;-0.07;65.90;100048.37;147409;1147;104457;-75
2021/03/08 02:37:07;;;;;;;10.90;6.00;;;;;;;-0.04;65.33;100045.58;147762;1148;104473;-72
2021/03/08 02:44:24;;;;;;;9.38;4.40;;;;;;;-0.06;65.08;100051.83;147769;1147;104577;-72
2021/03/08 02:47:30;;;;;;;8.13;4.73;;;;;;;-0.11;66.17;100052.11;147444;1147;104447;-71
2021/03/08 02:50:36;;;;;;;10.27;5.00;;;;;;;-0.14;65.70;100059.31;147346;1147;104466;-72
2021/03/08 02:53:43;;;;;;;10.55;4.72;;;;;;;-0.20;65.87;100055.27;147158;1147;104572;-71
2021/03/08 02:56:51;;;;;;;8.10;4.55;;;;;;;-0.29;66.83;100061.03;147558;1147;104488;-68
2021/03/08 02:59:57;;;;;;;9.47;5.20;;;;;;;-0.38;66.38;100069.45;147626;1147;104547;-71
2021/03/08 03:03:01;;;;;;;10.50;5.73;;;;;;;-0.45;65.62;100074.19;147720;1147;104473;-72
2021/03/08 03:06:06;;;;;;;11.28;5.58;;;;;;;-0.53;68.12;100073.78;147892;1146;104470;-70
2021/03/08 03:09:12;;;;;;;11.30;6.08;;;;;;;-0.62;66.16;100086.48;147707;1147;104653;-71
2021/03/08 03:12:16;;;;;;;11.65;6.05;;;;;;;-0.65;66.87;100091.05;147752;1147;104522;-74
2021/03/08 03:15:21;;;;;;;11.05;6.03;;;;;;;-0.62;66.97;100090.86;147720;1147;104453;-72
2021/03/08 03:18:27;;;;;;;11.93;6.83;;;;;;;-0.60;66.38;100094.23;147673;1147;104538;-70
2021/03/08 03:21:34;;;;;;;12.07;6.22;;;;;;;-0.56;66.46;100098.36;147697;1147;104544;-71
2021/03/08 03:24:39;;;;;;;12.20;6.40;;;;;;;-0.56;66.69;100097.53;147724;1147;104550;-71
2021/03/08 03:27:44;;;;;;;12.63;6.70;;;;;;;-0.57;66.30;100099.31;147536;1147;104496;-71
2021/03/08 03:30:49;;;;;;;10.63;6.03;;;;;;;-0.62;67.03;100093.48;147767;1147;104460;-72
2021/03/08 03:33:54;;;;;;;10.95;5.58;;;;;;;-0.71;66.48;100101.84;147501;1147;104503;-71
2021/03/08 03:36:59;;;;;;;10.72;6.25;;;;;;;-0.81;66.73;100118.09;147886;1147;104500;-72
2021/03/08 03:40:04;;;;;;;10.78;6.22;;;;;;;-0.88;67.26;100108.88;147830;1147;104564;-71
2021/03/08 03:43:07;;;;;;;11.65;6.28;;;;;;;-0.95;67.53;100120.59;147710;1146;104567;-74
2021/03/08 03:46:10;;;;;;;11.85;6.83;;;;;;;-1.03;67.12;100122.80;147819;1146;104659;-72
2021/03/08 03:49:15;;;;;;;11.70;5.92;;;;;;;-1.05;68.47;100122.88;147747;1147;104478;-74
2021/03/08 03:52:18;;;;;;;11.15;5.85;;;;;;;-1.05;67.65;100129.89;147860;1147;104457;-71
2021/03/08 03:55:25;;;;;;;13.08;6.25;;;;;;;-1.08;68.14;100132.66;147949;1147;104546;-67
2021/03/08 03:58:35;;;;;;;9.63;5.70;;;;;;;-1.12;67.03;100133.75;148071;1147;104580;-73
2021/03/08 04:01:44;;;;;;;9.57;5.00;;;;;;;-1.10;66.55;100132.73;147758;1147;104470;-70
2021/03/08 04:04:52;;;;;;;27.27;10.72;;;;;;;-1.12;66.42;100138.99;147631;1146;104542;-70
2021/03/08 04:07:57;;;;;;;20.77;8.53;;;;;;;-1.12;67.57;100136.38;147671;1147;104541;-68
2021/03/08 04:11:04;;;;;;;29.12;9.60;;;;;;;-1.15;68.07;100139.17;147526;1146;104537;-69
2021/03/08 04:14:10;;;;;;;13.27;5.70;;;;;;;-1.16;66.69;100145.32;147533;1147;104554;-68
2021/03/08 04:17:15;;;;;;;26.97;10.00;;;;;;;-1.19;67.02;100147.17;147863;1147;104535;-67
2021/03/08 04:20:20;;;;;;;17.57;7.33;;;;;;;-1.18;68.22;100150.63;148609;1147;104454;-69
2021/03/08 04:23:25;;;;;;;40.12;13.50;;;;;;;-1.24;67.54;100149.18;147709;1147;104553;-68
2021/03/08 04:26:29;;;;;;;38.02;12.55;;;;;;;-1.28;67.33;100150.27;147602;1147;104596;-72
2021/03/08 04:29:33;;;;;;;33.02;11.55;;;;;;;-1.33;67.67;100157.51;147701;1148;104796;-72
2021/03/08 04:32:37;;;;;;;33.33;12.07;;;;;;;-1.39;67.09;100156.09;147655;1146;104461;-72
2021/03/08 04:35:42;;;;;;;32.13;12.23;;;;;;;-1.30;67.98;100165.21;147624;1147;104538;-73
2021/03/08 04:38:46;;;;;;;39.85;12.82;;;;;;;-1.30;68.16;100169.61;147692;1147;104508;-70
2021/03/08 04:41:53;;;;;;;18.73;7.50;;;;;;;-1.32;67.45;100169.69;147617;1147;104564;-68
2021/03/08 04:44:57;;;;;;;18.77;7.33;;;;;;;-1.29;67.16;100176.52;147686;1148;104558;-74
2021/03/08 04:48:02;;;;;;;33.28;11.35;;;;;;;-1.37;68.71;100169.06;147692;1147;104463;-69
2021/03/08 04:51:07;;;;;;;29.95;9.65;;;;;;;-1.41;67.89;100180.63;147444;1147;104470;-71
2021/03/08 04:54:12;;;;;;;34.80;12.95;;;;;;;-1.39;67.91;100184.00;147686;1147;104585;-72
2021/03/08 04:57:19;;;;;;;72.90;23.98;;;;;;;-1.37;67.28;100187.39;147585;1147;104574;-69
2021/03/08 05:00:24;;;;;;;71.40;29.60;;;;;;;-1.34;67.21;100189.02;147723;1147;104570;-71
2021/03/08 05:03:31;;;;;;;17.53;8.97;;;;;;;-1.35;68.08;100196.00;147597;1147;104497;-71
2021/03/08 05:06:38;;;;;;;13.73;7.20;;;;;;;-1.38;67.23;100190.95;147639;1147;104641;-70
2021/03/08 05:09:42;;;;;;;60.10;21.82;;;;;;;-1.40;66.91;100182.33;147630;1146;104550;-73
2021/03/08 05:12:45;;;;;;;149.23;36.50;;;;;;;-1.33;67.60;100182.84;147630;1147;104913;-71
2021/03/08 05:15:49;;;;;;;105.95;32.70;;;;;;;-1.26;67.23;100187.69;147647;1147;104475;-72
2021/03/08 05:18:53;;;;;;;30.15;13.08;;;;;;;-1.27;67.11;100199.09;147680;1147;104492;-69
2021/03/08 05:21:56;;;;;;;298.55;102.05;;;;;;;-1.20;67.19;100195.22;147559;1146;106109;-68
2021/03/08 05:25:01;;;;;;;64.05;25.25;;;;;;;-1.14;67.27;100193.22;147685;1147;104447;-74
2021/03/08 05:28:06;;;;;;;65.63;30.07;;;;;;;-1.08;67.46;100195.50;147677;1147;104889;-70
2021/03/08 05:31:11;;;;;;;64.30;28.52;;;;;;;-0.98;67.94;100191.50;147359;1148;104562;-74
2021/03/08 05:34:17;;;;;;;29.32;16.25;;;;;;;-0.94;67.28;100195.64;147653;1147;104528;-73
2021/03/08 05:37:21;;;;;;;29.98;14.25;;;;;;;-0.92;67.65;100204.27;147728;1146;104545;-70
2021/03/08 05:40:29;;;;;;;25.15;13.15;;;;;;;-0.82;67.32;100205.45;147675;1147;104463;-70
2021/03/08 05:43:36;;;;;;;42.95;23.00;;;;;;;-0.65;67.52;100201.10;147564;1147;104622;-67
2021/03/08 05:47:14;;;;;;;104.00;45.40;;;;;;;-0.53;67.48;100200.42;147617;1146;104809;-71
2021/03/08 05:50:52;;;;;;;97.88;43.25;;;;;;;-0.38;67.02;100198.74;147661;1147;104548;-68
2021/03/08 05:54:30;;;;;;;67.47;33.40;;;;;;;-0.25;67.43;100204.13;147642;1148;104470;-68
2021/03/08 05:57:48;;;;;;;78.45;33.63;;;;;;;-0.15;67.55;100210.58;147590;1147;104537;-73
2021/03/08 06:01:26;;;;;;;48.43;24.43;;;;;;;-0.09;67.17;100220.72;147425;1146;104522;-70
2021/03/08 06:05:04;;;;;;;30.23;15.72;;;;;;;-0.10;66.92;100220.80;147583;1148;104555;-72
2021/03/08 06:08:38;;;;;;;122.05;52.75;;;;;;;-0.08;66.88;100224.17;146847;1147;104600;-72
2021/03/08 06:11:46;;;;;;;168.93;76.55;;;;;;;-0.02;67.25;100232.56;147638;1146;104475;-71
2021/03/08 06:14:54;;;;;;;51.60;19.95;;;;;;;0.04;66.94;100244.49;147535;1146;104550;-70
2021/03/08 06:17:58;;;;;;;31.00;12.93;;;;;;;0.06;67.19;100249.63;147540;1147;104612;-70
2021/03/08 06:21:02;;;;;;;41.68;19.80;;;;;;;0.07;67.48;100248.71;147771;1146;104532;-71
2021/03/08 06:24:08;;;;;;;19.77;9.88;;;;;;;-0.05;67.29;100256.33;147629;1147;104477;-68
2021/03/08 06:27:12;;;;;;;25.65;12.53;;;;;;;-0.02;67.44;100261.42;147510;1146;104468;-72
2021/03/08 06:30:18;;;;;;;18.03;7.67;;;;;;;0.04;67.32;100265.48;147773;1147;104463;-70
2021/03/08 06:33:22;;;;;;;20.82;10.68;;;;;;;-0.01;67.23;100272.75;147720;1147;104535;-71
2021/03/08 06:36:26;;;;;;;11.47;6.50;;;;;;;-0.03;67.18;100278.08;147672;1147;104935;-72
2021/03/08 06:39:30;;;;;;;9.98;5.78;;;;;;;0.01;67.00;100268.27;147584;1147;104457;-70
2021/03/08 06:42:34;;;;;;;27.53;11.23;;;;;;;0.13;67.44;100275.44;147563;1147;104892;-68
2021/03/08 06:45:37;;;;;;;180.87;67.47;;;;;;;0.30;67.36;100271.86;147546;1147;104864;-66
2021/03/08 06:48:42;;;;;;;21.15;10.13;;;;;;;0.43;66.91;100284.31;147640;1148;104598;-70
2021/03/08 06:52:05;;;;;;;18.35;8.20;;;;;;;0.49;66.80;100305.80;147649;1147;104544;-72
2021/03/08 06:55:10;;;;;;;13.75;6.92;;;;;;;0.56;66.70;100301.05;147635;1147;104506;-70
2021/03/08 06:58:20;;;;;;;11.93;6.00;;;;;;;0.61;66.39;100306.86;147370;1146;104529;-70
2021/03/08 07:01:31;;;;;;;14.15;7.05;;;;;;;0.61;66.03;100300.78;147366;1146;104470;-71
2021/03/08 07:04:44;;;;;;;18.40;7.10;;;;;;;0.59;66.05;100306.11;147526;1147;104469;-70
2021/03/08 07:07:52;;;;;;;10.45;4.95;;;;;;;0.60;65.32;100305.19;147769;1147;104556;-71
2021/03/08 07:10:55;;;;;;;61.35;21.75;;;;;;;0.66;65.29;100307.45;147602;1147;104592;-68
2021/03/08 07:14:00;;;;;;;14.63;5.47;;;;;;;0.72;65.05;100309.72;147110;1147;104534;-69
2021/03/08 07:17:03;;;;;;;15.50;6.45;;;;;;;0.77;64.46;100315.56;147394;1146;104542;-72
2021/03/08 07:20:10;;;;;;;13.25;6.10;;;;;;;0.87;64.92;100309.78;147672;1147;104503;-71
2021/03/08 07:23:25;;;;;;;11.18;4.67;;;;;;;0.94;63.50;100317.22;147459;1147;104543;-71
2021/03/08 07:26:29;;;;;;;9.80;4.55;;;;;;;0.93;62.44;100306.79;147358;1147;104439;-71
2021/03/08 07:29:32;;;;;;;10.08;4.20;;;;;;;0.96;62.93;100317.10;147639;1147;104472;-72
2021/03/08 07:32:37;;;;;;;10.93;3.98;;;;;;;0.97;62.58;100305.67;147700;1147;104559;-71
2021/03/08 07:35:43;;;;;;;7.03;3.63;;;;;;;1.02;61.37;100313.27;147581;1147;104468;-70
2021/03/08 07:38:46;;;;;;;5.53;2.70;;;;;;;1.05;61.67;100310.47;147715;1147;105005;-70
2021/03/08 07:41:56;;;;;;;12.00;5.30;;;;;;;1.12;60.99;100314.44;147623;1147;104523;-71
2021/03/08 07:45:00;;;;;;;6.90;3.05;;;;;;;1.11;59.88;100313.56;147854;1147;104543;-71
2021/03/08 07:48:10;;;;;;;6.37;2.80;;;;;;;1.09;61.03;100315.44;147537;1147;104454;-71
2021/03/08 07:51:14;;;;;;;7.28;3.70;;;;;;;1.23;62.07;100319.88;147640;1147;104545;-72
2021/03/08 07:54:17;;;;;;;5.37;3.10;;;;;;;1.25;59.84;100325.04;147629;1146;104535;-70
2021/03/08 07:57:21;;;;;;;8.03;3.92;;;;;;;1.25;60.78;100319.78;147780;1147;104541;-77
2021/03/08 08:00:25;;;;;;;9.00;4.67;;;;;;;1.29;58.70;100323.91;147461;1147;104534;-77
2021/03/08 08:03:29;;;;;;;6.90;3.30;;;;;;;1.31;58.81;100325.53;147719;1147;104544;-71
2021/03/08 08:06:34;;;;;;;6.00;2.80;;;;;;;1.40;59.56;100325.91;147273;1147;104476;-64
2021/03/08 08:09:40;;;;;;;6.15;3.37;;;;;;;1.53;61.45;100329.48;147470;1147;104650;-75
2021/03/08 08:12:46;;;;;;;8.68;3.55;;;;;;;1.71;60.49;100331.00;147673;1148;104546;-70
2021/03/08 08:15:51;;;;;;;5.92;3.20;;;;;;;1.87;60.73;100333.52;147559;1147;106102;-73
2021/03/08 08:19:00;;;;;;;10.18;4.87;;;;;;;2.02;60.51;100344.02;147735;1147;104447;-74
2021/03/08 08:22:06;;;;;;;8.20;3.90;;;;;;;2.03;58.36;100338.66;147799;1147;104543;-72
2021/03/08 08:25:15;;;;;;;6.08;3.25;;;;;;;2.07;58.05;100349.85;147802;1146;104486;-71
2021/03/08 08:28:21;;;;;;;6.90;3.37;;;;;;;2.05;59.44;100351.73;147671;1147;104462;-74
2021/03/08 08:31:24;;;;;;;6.58;3.50;;;;;;;2.05;58.88;100359.63;147814;1147;104944;-72
2021/03/08 08:34:35;;;;;;;7.90;4.10;;;;;;;2.05;59.96;100351.73;147824;1147;104450;-71
2021/03/08 08:37:38;;;;;;;8.13;3.90;;;;;;;2.07;59.90;100337.53;147545;1147;104515;-70
2021/03/08 08:40:43;;;;;;;6.78;3.90;;;;;;;2.03;59.77;100345.72;147814;1147;104583;-71
2021/03/08 08:43:47;;;;;;;6.57;3.63;;;;;;;1.96;60.81;100351.38;147645;1147;104435;-72
2021/03/08 08:46:51;;;;;;;7.83;3.55;;;;;;;1.91;59.55;100358.70;147877;1147;104447;-70
2021/03/08 08:49:58;;;;;;;96.15;31.00;;;;;;;1.93;60.86;100354.19;147621;1147;104556;-76
2021/03/08 08:53:01;;;;;;;14.80;5.65;;;;;;;2.01;60.27;100360.77;147681;1147;104492;-72
2021/03/08 08:56:06;;;;;;;10.73;4.03;;;;;;;2.06;59.72;100364.80;147512;1147;104467;-71
2021/03/08 08:59:18;;;;;;;9.23;3.60;;;;;;;2.02;58.50;100357.18;147697;1148;105004;-72
2021/03/08 09:02:34;;;;;;;6.58;2.90;;;;;;;2.07;59.97;100374.38;147736;1146;104439;-72
2021/03/08 09:05:41;;;;;;;10.35;4.67;;;;;;;2.26;58.43;100363.54;147746;1147;104562;-72
2021/03/08 09:08:53;;;;;;;5.67;2.80;;;;;;;2.30;60.27;100358.93;147778;1147;104473;-71
2021/03/08 09:11:58;;;;;;;5.17;2.60;;;;;;;2.58;59.78;100365.91;147763;1147;104452;-72
2021/03/08 09:15:04;;;;;;;5.35;2.60;;;;;;;2.85;58.92;100372.94;147678;1147;104547;-74
2021/03/08 09:18:09;;;;;;;5.35;2.20;;;;;;;2.78;57.28;100374.31;147769;1147;104882;-71
2021/03/08 09:21:25;;;;;;;6.20;2.60;;;;;;;2.64;57.04;100375.22;147783;1147;104546;-74
2021/03/08 09:24:32;;;;;;;4.90;2.67;;;;;;;2.63;56.86;100378.78;147731;1147;104540;-73
2021/03/08 09:27:37;;;;;;;5.28;2.12;;;;;;;2.46;56.22;100388.59;147821;1146;104479;-72
2021/03/08 09:30:44;;;;;;;3.85;1.98;;;;;;;2.23;55.88;100387.41;147797;1148;104489;-72
2021/03/08 09:33:48;;;;;;;7.00;2.07;;;;;;;2.22;55.29;100396.27;147830;1148;104543;-71
2021/03/08 09:36:53;;;;;;;30.77;11.00;;;;;;;2.36;56.51;100393.59;147822;1147;104460;-72
2021/03/08 09:39:59;;;;;;;5.47;2.08;;;;;;;2.54;55.89;100398.64;147801;1147;104547;-72
2021/03/08 09:43:16;;;;;;;5.00;2.25;;;;;;;2.78;56.99;100396.23;147844;1147;104466;-72
2021/03/08 09:46:19;;;;;;;18.95;11.25;;;;;;;3.18;56.46;100396.25;147864;1147;104549;-72
2021/03/08 09:49:23;;;;;;;8.63;3.37;;;;;;;3.34;54.98;100398.70;147754;1147;104455;-71
2021/03/08 09:52:37;;;;;;;6.83;4.50;;;;;;;3.37;55.96;100397.63;147497;1147;104547;-71
2021/03/08 09:55:40;;;;;;;7.70;3.60;;;;;;;3.46;52.42;100411.05;147669;1147;104619;-71
2021/03/08 09:58:44;;;;;;;13.72;8.38;;;;;;;3.42;53.47;100399.02;147606;1147;104547;-76
2021/03/08 10:01:52;;;;;;;8.15;4.35;;;;;;;3.49;55.06;100405.58;147762;1146;104543;-73
2021/03/08 10:04:57;;;;;;;5.33;2.43;;;;;;;3.39;51.86;100420.34;147794;1147;104513;-73
2021/03/08 10:08:00;;;;;;;3.77;2.00;;;;;;;3.22;52.73;100403.00;147548;1147;104470;-71
2021/03/08 10:11:03;;;;;;;5.70;2.62;;;;;;;3.23;55.29;100403.84;147317;1147;104611;-73
2021/03/08 10:14:07;;;;;;;5.87;2.85;;;;;;;3.36;54.53;100419.70;147670;1146;104543;-72
2021/03/08 10:17:13;;;;;;;7.08;3.20;;;;;;;3.30;54.02;100411.23;147771;1147;104474;-72
2021/03/08 10:20:17;;;;;;;23.15;11.57;;;;;;;3.24;52.44;100424.00;147659;1146;104946;-71
2021/03/08 10:23:25;;;;;;;28.52;16.30;;;;;;;3.27;55.16;100423.78;147681;1147;104576;-72
2021/03/08 10:26:30;;;;;;;9.40;4.67;;;;;;;3.23;55.30;100424.94;147822;1147;104560;-72
2021/03/08 10:29:33;;;;;;;7.33;3.20;;;;;;;3.28;53.48;100434.23;147533;1146;104508;-71
2021/03/08 10:32:37;;;;;;;6.47;3.40;;;;;;;3.33;53.54;100434.78;147411;1147;104556;-75
2021/03/08 10:35:44;;;;;;;6.60;2.87;;;;;;;3.40;53.65;100429.92;147760;1148;104468;-73
2021/03/08 10:38:53;;;;;;;4.92;2.90;;;;;;;3.42;54.56;100430.67;147690;1146;104543;-72
2021/03/08 10:41:56;;;;;;;6.90;2.85;;;;;;;3.57;55.25;100444.63;147756;1147;104615;-72
2021/03/08 10:45:00;;;;;;;4.73;2.50;;;;;;;3.56;53.10;100442.95;147829;1148;104489;-72
2021/03/08 10:48:12;;;;;;;4.42;2.42;;;;;;;3.61;55.63;100435.55;147779;1147;104565;-73
2021/03/08 10:51:19;;;;;;;;;;;;;;;3.66;52.40;100433.45;147814;1147;104943;-73
2021/03/08 10:54:22;;;;;;;6.90;2.60;;;;;;;3.54;51.51;100431.63;147789;1146;105244;-74
2021/03/08 10:57:27;;;;;;;4.62;2.52;;;;;;;3.57;54.40;100430.60;147745;1147;104559;-72
2021/03/08 11:00:31;;;;;;;5.90;2.30;;;;;;;3.54;53.57;100434.27;147869;1148;104483;-73
2021/03/08 11:03:43;;;;;;;3.87;2.30;;;;;;;3.45;50.70;100440.19;147984;1146;104542;-73
2021/03/08 11:06:46;;;;;;;4.37;2.17;;;;;;;3.60;53.69;100435.66;148433;1146;104470;-73
2021/03/08 11:09:50;;;;;;;4.67;2.23;;;;;;;3.64;50.84;100443.28;147525;1147;104581;-74
2021/03/08 11:13:02;;;;;;;11.47;5.90;;;;;;;3.65;53.25;100441.47;147634;1147;104573;-74
2021/03/08 11:16:10;;;;;;;7.62;4.30;;;;;;;3.68;52.94;100446.55;147898;1147;104551;-74
2021/03/08 11:19:17;;;;;;;8.90;4.60;;;;;;;3.69;53.44;100442.95;147904;1147;104585;-75
2021/03/08 11:22:21;;;;;;;8.80;5.12;;;;;;;3.61;50.72;100442.63;147879;1147;104552;-76
2021/03/08 11:25:33;;;;;;;9.70;5.03;;;;;;;3.60;53.23;100444.44;148770;1147;104535;-72
2021/03/08 11:28:39;;;;;;;8.98;4.97;;;;;;;3.63;54.47;100438.09;148396;1147;104626;-72
2021/03/08 11:31:53;;;;;;;14.60;8.30;;;;;;;3.59;52.51;100444.53;147929;1145;104476;-71
2021/03/08 11:34:58;;;;;;;7.83;3.62;;;;;;;3.41;51.15;100449.27;148081;1146;104548;-71
2021/03/08 11:38:05;;;;;;;5.33;2.62;;;;;;;3.26;50.04;100453.75;147624;1147;104506;-73
2021/03/08 11:41:08;;;;;;;6.53;3.33;;;;;;;3.38;51.72;100450.29;148464;1146;104451;-73
2021/03/08 11:44:12;;;;;;;6.08;2.70;;;;;;;3.62;51.57;100450.45;147794;1147;104620;-69
2021/03/08 11:47:15;;;;;;;6.30;2.80;;;;;;;3.71;52.88;100446.33;147564;1147;104563;-72
2021/03/08 11:50:20;;;;;;;4.75;2.30;;;;;;;3.65;49.09;100444.11;147487;1147;104856;-73
2021/03/08 11:53:24;;;;;;;6.28;2.60;;;;;;;3.41;49.41;100455.38;147778;1147;104470;-72
2021/03/08 11:56:28;;;;;;;6.10;2.47;;;;;;;3.33;51.21;100455.05;147735;1147;104452;-71
2021/03/08 11:59:31;;;;;;;6.30;2.40;;;;;;;3.37;51.73;100453.02;147781;1147;104831;-74
2021/03/08 12:02:34;;;;;;;10.32;4.33;;;;;;;3.28;51.51;100443.95;147802;1147;104528;-74
2021/03/08 12:05:37;;;;;;;5.20;2.40;;;;;;;3.32;52.13;100456.81;147805;1147;104868;-71
2021/03/08 12:08:41;;;;;;;9.73;4.37;;;;;;;3.25;52.28;100450.28;147563;1148;104554;-72
2021/03/08 12:11:44;;;;;;;2.93;1.40;;;;;;;3.19;50.02;100455.09;147760;1147;104447;-73
2021/03/08 12:14:47;;;;;;;4.62;1.90;;;;;;;3.03;51.33;100444.72;147650;1147;104588;-72
2021/03/08 12:17:51;;;;;;;3.73;1.90;;;;;;;2.99;52.25;100457.25;147833;1146;104835;-72
2021/03/08 12:20:54;;;;;;;4.77;1.70;;;;;;;3.01;52.01;100457.98;147783;1146;104586;-76
2021/03/08 12:23:57;;;;;;;36.33;4.65;;;;;;;3.05;52.98;100448.94;147775;1147;104974;-79
2021/03/08 12:27:01;;;;;;;18.20;2.62;;;;;;;3.15;52.77;100455.28;147424;1147;104550;-76
2021/03/08 12:30:06;;;;;;;8.53;5.03;;;;;;;3.18;51.15;100453.42;147725;1147;104592;-74
2021/03/08 12:33:10;;;;;;;3.60;2.07;;;;;;;3.21;51.10;100453.20;147728;1147;104959;-74
2021/03/08 12:36:14;;;;;;;7.67;2.07;;;;;;;3.12;52.41;100455.50;147725;1146;104818;-74
2021/03/08 12:39:17;;;;;;;3.47;1.93;;;;;;;3.03;51.37;100464.00;147798;1147;104557;-76
2021/03/08 12:42:20;;;;;;;2.90;1.60;;;;;;;2.94;51.84;100462.83;147795;1147;104556;-77
2021/03/08 12:45:24;;;;;;;45.17;7.95;;;;;;;2.94;52.99;100443.50;147700;1147;104722;-73
2021/03/08 12:48:28;;;;;;;7.08;2.92;;;;;;;3.13;52.89;100457.17;147531;1147;104816;-75
2021/03/08 12:51:31;;;;;;;6.42;2.60;;;;;;;3.30;53.29;100447.33;147548;1146;104588;-75
2021/03/08 12:54:35;;;;;;;7.33;3.17;;;;;;;3.31;51.37;100451.63;147628;1146;104471;-75
2021/03/08 12:57:39;;;;;;;4.67;2.37;;;;;;;3.33;52.46;100442.70;147737;1147;104547;-78
2021/03/08 13:00:42;;;;;;;6.47;2.87;;;;;;;3.37;52.87;100447.75;147581;1147;104608;-74
2021/03/08 13:03:45;;;;;;;6.70;2.80;;;;;;;3.22;52.67;100449.63;147263;1146;104535;-77
2021/03/08 13:06:49;;;;;;;10.38;3.92;;;;;;;3.13;53.65;100457.17;147327;1146;104478;-78
2021/03/08 13:09:52;;;;;;;9.53;4.10;;;;;;;3.15;53.90;100460.55;147388;1148;104476;-78
2021/03/08 13:12:55;;;;;;;9.83;4.00;;;;;;;3.14;51.29;100455.41;147580;1146;104487;-81
2021/03/08 13:15:59;;;;;;;8.23;3.55;;;;;;;3.23;51.36;100454.78;147754;1145;104619;-77
2021/03/08 13:19:02;;;;;;;20.43;8.68;;;;;;;3.39;52.79;100454.63;147551;1147;104586;-79
2021/03/08 13:22:07;;;;;;;27.67;10.82;;;;;;;3.49;51.90;100452.22;147709;1147;104476;-82
2021/03/08 13:25:12;;;;;;;9.55;3.60;;;;;;;3.51;48.90;100466.99;147542;1147;104460;-81
2021/03/08 13:28:15;;;;;;;10.90;4.47;;;;;;;3.45;50.56;100461.30;147486;1147;104453;-80
2021/03/08 13:31:19;;;;;;;4.90;2.10;;;;;;;3.21;51.78;100469.02;147691;1148;104557;-85
2021/03/08 13:34:22;;;;;;;5.20;2.67;;;;;;;2.79;54.78;100473.48;147791;1147;104587;-80
2021/03/08 13:37:25;;;;;;;123.67;38.58;;;;;;;2.70;54.30;100474.93;147468;1147;104809;-77
2021/03/08 13:40:29;;;;;;;17.48;6.30;;;;;;;2.79;53.57;100478.75;147663;1147;104487;-82
2021/03/08 13:43:32;;;;;;;10.20;3.85;;;;;;;2.76;53.70;100474.53;147783;1147;104502;-76
2021/03/08 13:46:35;;;;;;;94.10;45.63;;;;;;;2.79;53.18;100478.75;147456;1147;104538;-78
2021/03/08 13:49:39;;;;;;;82.97;36.77;;;;;;;2.91;52.69;100481.46;147814;1148;104600;-78
2021/03/08 13:52:42;;;;;;;42.45;17.60;;;;;;;2.97;52.68;100482.02;148435;1146;104544;-72
2021/03/08 13:55:45;;;;;;;36.60;19.57;;;;;;;3.04;53.19;100478.02;147901;1147;104550;-72
2021/03/08 13:58:49;;;;;;;37.45;19.52;;;;;;;3.19;52.82;100484.09;147830;1147;104543;-71
2021/03/08 14:01:52;;;;;;;56.03;14.97;;;;;;;3.30;52.32;100476.34;147781;1147;104585;-78
2021/03/08 14:04:55;;;;;;;29.10;6.00;;;;;;;3.33;53.25;100481.42;147715;1146;104513;-76
2021/03/08 14:07:58;;;;;;;17.55;7.17;;;;;;;3.37;51.42;100477.63;147486;1147;104470;-78
2021/03/08 14:11:02;;;;;;;67.37;27.90;;;;;;;3.51;51.98;100490.73;147566;1147;104470;-78